createdAt,value
2023-05-21T00:00:12.952Z,15.69
2023-05-21T00:02:42.897Z,15.69
2023-05-21T00:05:14.815Z,15.70
2023-05-21T00:13:19.727Z,15.88
2023-05-21T00:15:49.101Z,15.89
2023-05-21T00:18:18.147Z,15.93
2023-05-21T00:20:47.377Z,15.96
2023-05-21T00:23:18.482Z,15.98
2023-05-21T00:25:48.006Z,15.99
2023-05-21T00:28:16.858Z,16.01
2023-05-21T00:30:47.266Z,16.02
2023-05-21T00:33:16.078Z,16.09
2023-05-21T00:35:44.927Z,16.10
2023-05-21T00:38:14.307Z,16.11
2023-05-21T00:40:43.165Z,16.12
2023-05-21T00:43:11.944Z,16.13
2023-05-21T00:45:43.024Z,16.15
2023-05-21T00:48:11.864Z,16.14
2023-05-21T00:50:40.652Z,16.12
2023-05-21T00:53:10.527Z,16.11
2023-05-21T00:55:39.293Z,16.10
2023-05-21T00:58:08.312Z,16.11
2023-05-21T01:00:38.141Z,16.12
2023-05-21T01:03:11.094Z,16.13
2023-05-21T01:05:40.246Z,16.13
2023-05-21T01:08:10.622Z,16.13
2023-05-21T01:10:39.466Z,16.12
2023-05-21T01:13:08.275Z,16.09
2023-05-21T01:15:38.370Z,16.03
2023-05-21T01:18:07.871Z,15.98
2023-05-21T01:20:37.664Z,15.93
2023-05-21T01:23:07.020Z,15.90
2023-05-21T01:25:36.208Z,15.96
2023-05-21T01:28:05.561Z,15.98
2023-05-21T01:30:34.630Z,15.94
2023-05-21T01:33:04.692Z,15.96
2023-05-21T01:35:35.229Z,15.97
2023-05-21T01:38:06.540Z,15.98
2023-05-21T01:40:38.218Z,15.98
2023-05-21T01:43:07.529Z,15.99
2023-05-21T01:45:36.955Z,15.98
2023-05-21T01:48:06.757Z,15.97
2023-05-21T01:50:35.590Z,15.95
2023-05-21T01:53:07.094Z,15.92
2023-05-21T01:55:39.509Z,15.86
2023-05-21T01:58:08.867Z,15.83
2023-05-21T02:00:39.958Z,15.84
2023-05-21T02:03:08.969Z,15.89
2023-05-21T02:05:38.360Z,15.94
2023-05-21T02:08:08.826Z,15.96
2023-05-21T02:10:37.894Z,15.97
2023-05-21T02:13:06.757Z,15.96
2023-05-21T02:15:35.812Z,15.95
2023-05-21T02:18:05.698Z,15.94
2023-05-21T02:20:34.947Z,15.92
2023-05-21T02:23:03.772Z,15.90
2023-05-21T02:25:32.914Z,15.88
2023-05-21T02:28:02.579Z,15.86
2023-05-21T02:30:31.426Z,15.83
2023-05-21T02:33:01.092Z,15.79
2023-05-21T02:35:30.025Z,15.76
2023-05-21T02:37:59.212Z,15.73
2023-05-21T02:40:28.331Z,15.75
2023-05-21T02:42:57.100Z,15.75
2023-05-21T02:45:26.044Z,15.78
2023-05-21T02:47:55.274Z,15.78
2023-05-21T02:50:24.323Z,15.79
2023-05-21T02:52:57.925Z,15.82
2023-05-21T02:55:27.136Z,15.85
2023-05-21T02:57:56.057Z,15.89
2023-05-21T03:00:24.979Z,15.91
2023-05-21T03:02:53.844Z,15.89
2023-05-21T03:05:23.002Z,15.90
2023-05-21T03:07:53.321Z,15.89
2023-05-21T03:10:22.199Z,15.90
2023-05-21T03:12:50.947Z,15.90
2023-05-21T03:15:23.961Z,15.91
2023-05-21T03:17:55.289Z,15.94
2023-05-21T03:20:26.096Z,16.03
2023-05-21T03:22:55.297Z,16.07
2023-05-21T03:25:25.230Z,16.14
2023-05-21T03:27:54.586Z,16.15
2023-05-21T03:30:46.367Z,16.13
2023-05-21T03:33:35.457Z,16.14
2023-05-21T03:36:10.540Z,16.12
2023-05-21T03:38:39.585Z,16.09
2023-05-21T03:41:08.972Z,16.06
2023-05-21T03:43:37.874Z,16.02
2023-05-21T03:46:07.305Z,15.98
2023-05-21T03:48:59.469Z,15.96
2023-05-21T03:51:30.597Z,15.99
2023-05-21T03:54:00.487Z,16.02
2023-05-21T03:56:29.796Z,16.06
2023-05-21T03:58:58.700Z,16.08
2023-05-21T04:01:28.209Z,16.08
2023-05-21T04:03:57.642Z,16.09
2023-05-21T04:06:26.713Z,16.09
2023-05-21T04:08:55.543Z,16.10
2023-05-21T04:11:24.383Z,16.11
2023-05-21T04:13:53.132Z,16.10
2023-05-21T04:16:22.445Z,16.11
2023-05-21T04:18:51.389Z,16.12
2023-05-21T04:21:21.411Z,16.14
2023-05-21T04:23:50.361Z,16.16
2023-05-21T04:26:28.006Z,16.18
2023-05-21T04:28:57.220Z,16.21
2023-05-21T04:31:26.285Z,16.25
2023-05-21T04:33:55.552Z,16.31
2023-05-21T04:36:25.957Z,16.35
2023-05-21T04:38:58.522Z,16.39
2023-05-21T04:41:28.568Z,16.46
2023-05-21T04:43:57.485Z,16.53
2023-05-21T04:46:27.920Z,16.58
2023-05-21T04:48:56.743Z,16.61
2023-05-21T04:51:26.702Z,16.65
2023-05-21T04:53:56.185Z,16.68
2023-05-21T04:56:27.300Z,16.71
2023-05-21T04:58:56.108Z,16.75
2023-05-21T05:01:25.937Z,16.81
2023-05-21T05:03:55.037Z,16.88
2023-05-21T05:06:25.765Z,16.97
2023-05-21T05:08:54.932Z,17.07
2023-05-21T05:11:24.065Z,17.17
2023-05-21T05:13:54.453Z,17.30
2023-05-21T05:16:25.740Z,17.43
2023-05-21T05:18:55.460Z,17.56
2023-05-21T05:21:24.474Z,17.73
2023-05-21T05:23:53.328Z,17.91
2023-05-21T05:26:25.420Z,18.10
2023-05-21T05:28:54.329Z,18.21
2023-05-21T05:31:23.825Z,18.39
2023-05-21T05:33:54.087Z,18.51
2023-05-21T05:36:24.308Z,18.54
2023-05-21T05:38:55.297Z,18.64
2023-05-21T05:41:27.198Z,18.81
2023-05-21T05:43:57.014Z,18.92
2023-05-21T05:46:27.688Z,19.09
2023-05-21T05:48:56.530Z,19.29
2023-05-21T05:51:25.284Z,19.48
2023-05-21T05:53:54.051Z,19.65
2023-05-21T05:56:22.840Z,19.83
2023-05-21T05:58:51.642Z,20.02
2023-05-21T06:01:22.730Z,20.14
2023-05-21T06:03:51.733Z,20.39
2023-05-21T06:06:21.085Z,20.54
2023-05-21T06:08:49.914Z,20.62
2023-05-21T06:11:19.148Z,20.72
2023-05-21T06:13:48.083Z,21.00
2023-05-21T06:16:18.097Z,21.22
2023-05-21T06:18:47.308Z,21.37
2023-05-21T06:21:16.134Z,21.43
2023-05-21T06:23:45.028Z,21.37
2023-05-21T06:26:13.892Z,21.19
2023-05-21T06:28:42.780Z,21.08
2023-05-21T06:31:13.612Z,21.01
2023-05-21T06:33:43.984Z,20.90
2023-05-21T06:36:13.073Z,20.91
2023-05-21T06:38:42.669Z,20.86
2023-05-21T06:41:11.548Z,20.79
2023-05-21T06:43:55.883Z,20.84
2023-05-21T06:46:59.986Z,20.81
2023-05-21T06:49:28.839Z,20.77
2023-05-21T06:51:57.795Z,20.81
2023-05-21T06:54:27.169Z,20.81
2023-05-21T06:56:56.121Z,20.79
2023-05-21T06:59:25.156Z,20.76
2023-05-21T07:01:56.008Z,20.80
2023-05-21T07:04:25.184Z,20.94
2023-05-21T07:06:54.521Z,21.06
2023-05-21T07:09:24.974Z,21.15
2023-05-21T07:11:54.135Z,21.10
2023-05-21T07:14:24.415Z,21.03
2023-05-21T07:16:53.310Z,21.08
2023-05-21T07:19:22.194Z,21.15
2023-05-21T07:21:51.313Z,21.08
2023-05-21T07:24:20.393Z,21.01
2023-05-21T07:26:49.260Z,20.91
2023-05-21T07:29:18.564Z,20.80
2023-05-21T07:31:47.317Z,20.73
2023-05-21T07:34:16.622Z,20.71
2023-05-21T07:36:45.412Z,20.71
2023-05-21T07:39:14.297Z,20.78
2023-05-21T07:41:44.933Z,20.76
2023-05-21T07:44:13.907Z,20.83
2023-05-21T07:46:44.010Z,21.02
2023-05-21T07:49:16.750Z,21.31
2023-05-21T07:51:46.745Z,21.63
2023-05-21T07:54:16.965Z,22.00
2023-05-21T07:56:46.722Z,22.29
2023-05-21T07:59:29.222Z,22.49
2023-05-21T08:01:58.228Z,22.70
2023-05-21T08:04:27.229Z,22.83
2023-05-21T08:06:56.495Z,23.05
2023-05-21T08:09:25.550Z,23.21
2023-05-21T08:11:54.561Z,23.38
2023-05-21T08:14:23.433Z,23.77
2023-05-21T08:16:52.507Z,24.20
2023-05-21T08:19:21.904Z,24.47
2023-05-21T08:21:52.812Z,24.59
2023-05-21T08:24:22.970Z,24.71
2023-05-21T08:26:52.299Z,24.79
2023-05-21T08:29:21.281Z,24.87
2023-05-21T08:31:50.159Z,25.00
2023-05-21T08:34:19.684Z,25.29
2023-05-21T08:36:55.054Z,25.42
2023-05-21T08:39:53.030Z,25.65
2023-05-21T08:42:37.037Z,25.67
2023-05-21T08:45:07.672Z,25.75
2023-05-21T08:47:37.289Z,25.85
2023-05-21T08:50:06.959Z,25.76
2023-05-21T08:52:36.507Z,25.72
2023-05-21T08:55:06.368Z,25.63
2023-05-21T08:57:35.926Z,25.67
2023-05-21T09:00:07.445Z,25.71
2023-05-21T09:02:38.609Z,25.56
2023-05-21T09:05:08.869Z,25.49
2023-05-21T09:07:39.254Z,25.53
2023-05-21T09:10:14.667Z,25.59
2023-05-21T09:12:43.506Z,25.51
2023-05-21T09:15:12.966Z,25.43
2023-05-21T09:17:42.635Z,25.29
2023-05-21T09:20:28.327Z,25.39
2023-05-21T09:23:03.712Z,25.61
2023-05-21T09:25:32.884Z,25.86
2023-05-21T09:28:12.124Z,26.05
2023-05-21T09:30:46.589Z,26.10
2023-05-21T09:33:16.235Z,26.09
2023-05-21T09:35:48.271Z,25.98
2023-05-21T09:38:17.674Z,25.88
2023-05-21T09:40:47.489Z,25.90
2023-05-21T09:43:17.207Z,25.84
2023-05-21T09:45:53.258Z,25.85
2023-05-21T09:48:35.469Z,25.80
2023-05-21T09:51:14.862Z,25.71
2023-05-21T09:53:46.946Z,25.61
2023-05-21T09:56:16.036Z,25.49
2023-05-21T09:58:44.848Z,25.43
2023-05-21T10:01:13.725Z,25.30
2023-05-21T10:03:42.965Z,25.18
2023-05-21T10:06:12.216Z,25.17
2023-05-21T10:08:43.050Z,25.20
2023-05-21T10:11:12.017Z,25.36
2023-05-21T10:13:41.561Z,25.58
2023-05-21T10:16:10.368Z,25.80
2023-05-21T10:18:39.229Z,26.00
2023-05-21T10:21:08.329Z,25.98
2023-05-21T10:23:37.547Z,26.17
2023-05-21T10:26:06.604Z,26.50
2023-05-21T10:28:35.442Z,26.88
2023-05-21T10:31:04.413Z,27.14
2023-05-21T10:33:33.642Z,27.18
2023-05-21T10:36:02.506Z,27.08
2023-05-21T10:38:31.542Z,27.61
2023-05-21T10:41:01.035Z,27.90
2023-05-21T10:43:43.503Z,28.10
2023-05-21T10:46:29.246Z,28.37
2023-05-21T10:49:02.029Z,28.48
2023-05-21T10:51:35.881Z,28.51
2023-05-21T10:54:15.166Z,28.21
2023-05-21T10:56:46.568Z,28.26
2023-05-21T10:59:22.429Z,28.31
2023-05-21T11:01:52.920Z,28.24
2023-05-21T11:04:24.791Z,28.33
2023-05-21T11:06:53.634Z,28.36
2023-05-21T11:09:22.766Z,28.46
2023-05-21T11:11:53.154Z,28.68
2023-05-21T11:14:28.807Z,28.77
2023-05-21T11:16:58.066Z,29.02
2023-05-21T11:19:34.643Z,29.25
2023-05-21T11:22:04.651Z,29.17
2023-05-21T11:24:33.991Z,28.94
2023-05-21T11:27:04.858Z,28.69
2023-05-21T11:29:40.258Z,28.90
2023-05-21T11:32:10.182Z,29.01
2023-05-21T11:34:40.367Z,29.25
2023-05-21T11:37:24.942Z,29.47
2023-05-21T11:39:53.793Z,29.80
2023-05-21T11:42:39.646Z,30.02
2023-05-21T11:45:09.992Z,30.20
2023-05-21T11:47:39.814Z,30.39
2023-05-21T11:50:12.873Z,30.49
2023-05-21T11:52:42.797Z,30.57
2023-05-21T11:55:12.296Z,30.61
2023-05-21T11:57:42.191Z,30.65
2023-05-21T12:00:14.767Z,30.65
2023-05-21T12:02:47.234Z,30.78
2023-05-21T12:05:16.562Z,31.11
2023-05-21T12:07:48.588Z,31.67
2023-05-21T12:10:17.628Z,32.12
2023-05-21T12:12:54.674Z,32.32
2023-05-21T12:15:25.879Z,32.44
2023-05-21T12:17:55.467Z,32.50
2023-05-21T12:20:24.731Z,32.65
2023-05-21T12:22:54.388Z,32.82
2023-05-21T12:25:23.543Z,33.09
2023-05-21T12:27:57.992Z,33.18
2023-05-21T12:30:27.597Z,33.49
2023-05-21T12:32:58.447Z,33.70
2023-05-21T12:35:27.497Z,33.72
2023-05-21T12:37:56.615Z,33.76
2023-05-21T12:40:25.564Z,33.79
2023-05-21T12:42:54.617Z,33.80
2023-05-21T12:45:23.476Z,33.98
2023-05-21T12:47:56.030Z,34.32
2023-05-21T12:50:25.307Z,34.71
2023-05-21T12:52:58.185Z,34.88
2023-05-21T12:55:31.706Z,34.98
2023-05-21T12:58:05.295Z,35.18
2023-05-21T13:00:35.254Z,35.47
2023-05-21T13:03:06.401Z,35.62
2023-05-21T13:05:36.026Z,35.69
2023-05-21T13:08:05.042Z,35.64
2023-05-21T13:10:33.905Z,35.60
2023-05-21T13:13:02.812Z,35.65
2023-05-21T13:15:31.741Z,35.54
2023-05-21T13:18:01.221Z,35.38
2023-05-21T13:20:30.497Z,35.05
2023-05-21T13:22:59.249Z,34.82
2023-05-21T13:25:29.418Z,34.63
2023-05-21T13:27:58.973Z,34.48
2023-05-21T13:30:27.779Z,34.66
2023-05-21T13:32:56.782Z,34.90
2023-05-21T13:35:25.684Z,34.83
2023-05-21T13:37:54.890Z,34.67
2023-05-21T13:40:23.854Z,34.51
2023-05-21T13:42:52.740Z,34.32
2023-05-21T13:45:21.726Z,34.32
2023-05-21T13:47:50.694Z,34.48
2023-05-21T13:50:19.667Z,34.45
2023-05-21T13:52:48.651Z,34.36
2023-05-21T13:55:18.833Z,34.35
2023-05-21T13:57:47.768Z,34.59
2023-05-21T14:00:16.795Z,34.63
2023-05-21T14:02:45.814Z,34.38
2023-05-21T14:05:14.681Z,33.78
2023-05-21T14:07:43.469Z,33.16
2023-05-21T14:10:12.708Z,32.74
2023-05-21T14:12:42.104Z,32.40
2023-05-21T14:15:12.089Z,32.22
2023-05-21T14:17:42.239Z,31.98
2023-05-21T14:20:11.814Z,31.82
2023-05-21T14:22:40.606Z,31.83
2023-05-21T14:25:09.804Z,31.89
2023-05-21T14:27:38.758Z,32.00
2023-05-21T14:30:08.601Z,32.13
2023-05-21T14:32:37.748Z,32.06
2023-05-21T14:35:08.889Z,32.08
2023-05-21T14:37:37.664Z,32.21
2023-05-21T14:40:07.984Z,32.33
2023-05-21T14:42:37.161Z,32.38
2023-05-21T14:45:18.820Z,32.22
2023-05-21T14:47:48.821Z,32.03
2023-05-21T14:50:18.915Z,31.95
2023-05-21T14:52:47.795Z,31.79
2023-05-21T14:55:18.417Z,31.52
2023-05-21T14:57:47.266Z,31.23
2023-05-21T15:00:16.667Z,31.07
2023-05-21T15:02:45.693Z,30.77
2023-05-21T15:05:14.686Z,30.56
2023-05-21T15:07:43.643Z,30.47
2023-05-21T15:10:13.070Z,30.26
2023-05-21T15:12:42.351Z,30.07
2023-05-21T15:15:13.438Z,29.97
2023-05-21T15:17:43.541Z,29.86
2023-05-21T15:20:13.730Z,29.75
2023-05-21T15:22:42.672Z,29.92
2023-05-21T15:25:11.712Z,30.18
2023-05-21T15:27:40.509Z,30.53
2023-05-21T15:30:10.181Z,30.83
2023-05-21T15:32:38.993Z,30.98
2023-05-21T15:35:08.795Z,31.18
2023-05-21T15:37:37.847Z,31.26
2023-05-21T15:40:08.718Z,31.23
2023-05-21T15:42:37.835Z,31.16
2023-05-21T15:45:07.559Z,31.12
2023-05-21T15:47:36.468Z,31.07
2023-05-21T15:50:05.599Z,30.98
2023-05-21T15:52:34.417Z,30.93
2023-05-21T15:55:04.815Z,30.78
2023-05-21T15:57:33.872Z,30.52
2023-05-21T16:00:02.861Z,30.33
2023-05-21T16:02:37.663Z,30.09
2023-05-21T16:05:07.010Z,29.93
2023-05-21T16:07:37.964Z,29.77
2023-05-21T16:10:10.308Z,29.52
2023-05-21T16:12:39.086Z,29.27
2023-05-21T16:15:08.741Z,29.03
2023-05-21T16:17:37.866Z,28.78
2023-05-21T16:20:08.138Z,28.47
2023-05-21T16:22:37.996Z,28.22
2023-05-21T16:25:08.061Z,28.13
2023-05-21T16:27:37.224Z,28.08
2023-05-21T16:30:07.450Z,28.03
2023-05-21T16:32:36.334Z,27.95
2023-05-21T16:38:14.346Z,27.81
2023-05-21T16:40:43.283Z,27.82
2023-05-21T16:43:12.572Z,27.78
2023-05-21T16:45:42.109Z,27.75
2023-05-21T16:48:11.928Z,27.65
2023-05-21T16:50:41.014Z,27.57
2023-05-21T16:53:09.835Z,27.52
2023-05-21T16:55:39.643Z,27.50
2023-05-21T16:58:09.964Z,27.45
2023-05-21T17:00:38.962Z,27.35
2023-05-21T17:03:08.481Z,27.13
2023-05-21T17:05:37.527Z,26.91
2023-05-21T17:08:08.234Z,26.75
2023-05-21T17:10:37.052Z,26.61
2023-05-21T17:13:17.387Z,26.44
2023-05-21T17:15:50.580Z,26.26
2023-05-21T17:18:19.564Z,26.11
2023-05-21T17:20:48.380Z,25.96
2023-05-21T17:23:17.589Z,25.83
2023-05-21T17:25:46.864Z,25.70
2023-05-21T17:28:15.938Z,25.59
2023-05-21T17:30:45.611Z,25.48
2023-05-21T17:33:15.753Z,25.36
2023-05-21T17:35:44.589Z,25.24
2023-05-21T17:38:14.156Z,25.13
2023-05-21T17:40:42.977Z,25.04
2023-05-21T17:43:12.062Z,24.97
2023-05-21T17:45:54.809Z,24.91
2023-05-21T17:48:24.139Z,24.83
2023-05-21T17:50:53.374Z,24.75
2023-05-21T17:53:22.869Z,24.63
2023-05-21T17:55:52.516Z,24.57
2023-05-21T17:58:24.892Z,24.48
2023-05-21T18:00:54.163Z,24.42
2023-05-21T18:03:23.320Z,24.35
2023-05-21T18:05:52.147Z,24.27
2023-05-21T18:08:21.337Z,24.18
2023-05-21T18:10:50.585Z,24.08
2023-05-21T18:13:19.638Z,24.01
2023-05-21T18:15:48.735Z,23.93
2023-05-21T18:18:21.365Z,23.84
2023-05-21T18:20:51.108Z,23.73
2023-05-21T18:23:21.112Z,23.64
2023-05-21T18:25:50.043Z,23.54
2023-05-21T18:28:18.963Z,23.43
2023-05-21T18:30:47.967Z,23.31
2023-05-21T18:33:16.993Z,23.18
2023-05-21T18:35:46.044Z,23.06
2023-05-21T18:38:14.955Z,22.93
2023-05-21T18:40:43.833Z,22.79
2023-05-21T18:43:13.864Z,22.67
2023-05-21T18:45:42.736Z,22.53
2023-05-21T18:48:12.583Z,22.40
2023-05-21T18:50:42.249Z,22.28
2023-05-21T18:53:11.128Z,22.16
2023-05-21T18:55:40.314Z,22.02
2023-05-21T18:58:09.283Z,21.91
2023-05-21T19:00:39.728Z,21.80
2023-05-21T19:03:08.773Z,21.67
2023-05-21T19:05:37.914Z,21.55
2023-05-21T19:08:07.030Z,21.45
2023-05-21T19:13:06.560Z,21.25
2023-05-21T19:15:35.534Z,21.15
2023-05-21T19:18:04.491Z,21.06
2023-05-21T19:20:33.997Z,20.97
2023-05-21T19:23:04.383Z,20.88
2023-05-21T19:25:33.270Z,20.80
2023-05-21T19:28:02.179Z,20.73
2023-05-21T19:30:33.528Z,20.66
2023-05-21T19:33:02.474Z,20.62
2023-05-21T19:35:31.604Z,20.57
2023-05-21T19:38:01.878Z,20.50
2023-05-21T19:40:33.170Z,20.45
2023-05-21T19:43:02.803Z,20.39
2023-05-21T19:45:31.648Z,20.33
2023-05-21T19:48:00.804Z,20.29
2023-05-21T19:50:29.855Z,20.22
2023-05-21T19:52:58.861Z,20.21
2023-05-21T19:55:28.343Z,20.18
2023-05-21T19:57:57.594Z,20.13
2023-05-21T20:00:27.498Z,20.13
2023-05-21T20:02:56.823Z,20.09
2023-05-21T20:05:25.769Z,20.07
2023-05-21T20:07:54.567Z,20.05
2023-05-21T20:10:23.550Z,19.99
2023-05-21T20:12:52.652Z,20.01
2023-05-21T20:15:21.900Z,19.99
2023-05-21T20:17:51.029Z,19.94
2023-05-21T20:20:22.966Z,19.94
2023-05-21T20:22:51.946Z,19.90
2023-05-21T20:25:20.907Z,19.86
2023-05-21T20:27:49.692Z,19.86
2023-05-21T20:30:18.782Z,19.86
2023-05-21T20:32:47.785Z,19.86
2023-05-21T20:35:16.768Z,19.86
2023-05-21T20:37:46.910Z,19.85
2023-05-21T20:40:15.841Z,19.84
2023-05-21T20:42:45.298Z,19.83
2023-05-21T20:45:15.846Z,19.82
2023-05-21T20:47:44.971Z,19.81
2023-05-21T20:50:13.951Z,19.80
2023-05-21T20:52:45.533Z,19.81
2023-05-21T20:55:15.844Z,19.81
2023-05-21T20:57:44.737Z,19.81
2023-05-21T21:00:16.054Z,19.80
2023-05-21T21:02:45.129Z,19.80
2023-05-21T21:05:14.184Z,19.79
2023-05-21T21:07:43.700Z,19.78
2023-05-21T21:10:12.573Z,19.77
2023-05-21T21:12:41.410Z,19.76
2023-05-21T21:15:11.602Z,19.76
2023-05-21T21:17:40.556Z,19.75
2023-05-21T21:20:10.733Z,19.73
2023-05-21T21:22:39.850Z,19.71
2023-05-21T21:25:09.261Z,19.69
2023-05-21T21:27:38.131Z,19.67
2023-05-21T21:30:08.333Z,19.65
2023-05-21T21:32:37.173Z,19.63
2023-05-21T21:35:06.414Z,19.62
2023-05-21T21:37:35.221Z,19.61
2023-05-21T21:40:04.202Z,19.60
2023-05-21T21:42:32.994Z,19.60
2023-05-21T21:45:02.034Z,19.61
2023-05-21T21:47:31.154Z,19.61
2023-05-21T21:50:00.165Z,19.62
2023-05-21T21:52:28.992Z,19.60
2023-05-21T21:54:57.974Z,19.59
2023-05-21T21:57:29.365Z,19.59
2023-05-21T21:59:58.117Z,19.61
2023-05-21T22:02:26.996Z,19.63
2023-05-21T22:04:55.828Z,19.65
2023-05-21T22:07:24.631Z,19.66
2023-05-21T22:09:53.398Z,19.65
2023-05-21T22:12:22.576Z,19.63
2023-05-21T22:14:51.652Z,19.59
2023-05-21T22:17:21.360Z,19.56
2023-05-21T22:19:50.858Z,19.50
2023-05-21T22:22:19.722Z,19.50
2023-05-21T22:24:48.813Z,19.48
2023-05-21T22:27:17.585Z,19.47
2023-05-21T22:29:46.391Z,19.47
2023-05-21T22:32:15.215Z,19.49
2023-05-21T22:34:44.139Z,19.51
2023-05-21T22:37:13.233Z,19.53
2023-05-21T22:39:42.073Z,19.51
2023-05-21T22:42:11.081Z,19.57
2023-05-21T22:44:39.883Z,19.60
2023-05-21T22:47:09.447Z,19.57
2023-05-21T22:49:40.496Z,19.58
2023-05-21T22:52:09.567Z,19.59
2023-05-21T22:54:38.334Z,19.60
2023-05-21T22:57:07.682Z,19.61
2023-05-21T22:59:36.553Z,19.61
2023-05-21T23:02:05.669Z,19.58
2023-05-21T23:04:43.529Z,19.58
2023-05-21T23:07:13.060Z,19.57
2023-05-21T23:09:41.936Z,19.53
2023-05-21T23:12:11.049Z,19.55
2023-05-21T23:14:39.927Z,19.52
2023-05-21T23:17:08.815Z,19.49
2023-05-21T23:19:37.728Z,19.44
2023-05-21T23:22:06.673Z,19.43
2023-05-21T23:24:36.384Z,19.40
2023-05-21T23:27:05.437Z,19.36
2023-05-21T23:29:34.201Z,19.31
2023-05-21T23:32:05.207Z,19.25
2023-05-21T23:34:34.290Z,19.22
2023-05-21T23:37:03.137Z,19.18
2023-05-21T23:39:32.044Z,19.13
2023-05-21T23:42:01.519Z,19.07
2023-05-21T23:44:30.348Z,19.01
2023-05-21T23:46:59.386Z,18.95
2023-05-21T23:49:28.218Z,18.91
2023-05-21T23:51:56.994Z,18.85
2023-05-21T23:54:26.149Z,18.79
2023-05-21T23:56:54.962Z,18.75
2023-05-21T23:59:23.743Z,18.74
